Standing Rock Reservation, South Dakota
Current Conditions -  °F | °C
As of 10:52 PM on Monday 20 Oct 2014 (Local Time) from KMBG Reporting Station
Clear Clear  
Wind Chill: 58°   Ceiling: Unl
Heat Index: 58°   Visibility: 10mi
Dew Point: 35°   Wind: 17mph
Humidity: 42%   Direction: 130°SE
Pressure: 29.9"   Gusts: NA
Location:  45.0005°N, 101.234°W
Report Text: KMBG 210452Z AUTO 13015KT 10SM CLR 14/02 A2990 RMK AO2 SLP124 T01440017
Loading
Personal Weather Stations






























Interactive Weather Map
Tropical Storm Tracking
New forecast layout! Learn more

10-Day Weather Forecast

Advertisements
Track Severe Weather on mobile